Merricourt, North Dakota
Current Conditions -  °F | °C
As of 1:56 PM on Wednesday 17 Dec 2014 (Local Time) from KJMS Reporting Station
Clear Clear  
Wind Chill: 17°   Ceiling: Unl
Heat Index: 17°   Visibility: 10mi
Dew Point: 10°   Wind: 0mph
Humidity: 74%   Direction: NA
Pressure: 30.26"   Gusts: NA
Location:  46.2592°N, 98.7407°W
Report Text: KJMS 171956Z AUTO 00000KT 10SM CLR M08/M12 A3026 RMK AO2 SLP285 T10831122
Loading
Personal Weather Stations






























Interactive Weather Map New forecast layout! Learn more

10-Day Weather Forecast

Advertisements
Track Severe Weather on mobile